createdAt,value
2022-11-10T00:02:07.361Z,2.1
2022-11-10T00:05:09.321Z,2.5
2022-11-10T00:08:11.298Z,2.8
2022-11-10T00:11:13.253Z,2.2
2022-11-10T00:14:15.229Z,2.1
2022-11-10T00:17:17.216Z,2.2
2022-11-10T00:20:19.263Z,2.8
2022-11-10T00:23:21.439Z,2.1
2022-11-10T00:26:23.088Z,2.2
2022-11-10T00:29:25.079Z,2.3
2022-11-10T00:32:27.013Z,2
2022-11-10T00:35:28.978Z,2.4
2022-11-10T00:38:30.959Z,2.1
2022-11-10T00:41:32.944Z,2
2022-11-10T00:44:34.885Z,2.2
2022-11-10T00:47:36.851Z,1.9
2022-11-10T00:50:38.856Z,2.1
2022-11-10T00:53:40.806Z,1.9
2022-11-10T00:56:42.762Z,2.3
2022-11-10T00:59:44.746Z,2
2022-11-10T01:02:46.694Z,1.9
2022-11-10T01:05:48.686Z,1.9
2022-11-10T01:08:50.666Z,1.9
2022-11-10T01:11:52.623Z,2
2022-11-10T01:14:54.616Z,2.2
2022-11-10T01:17:56.601Z,2
2022-11-10T01:20:58.542Z,2.2
2022-11-10T01:24:00.528Z,2.1
2022-11-10T01:27:02.487Z,2.4
2022-11-10T01:30:04.449Z,2
2022-11-10T01:33:06.407Z,2
2022-11-10T01:36:08.361Z,1.9
2022-11-10T01:39:10.332Z,1.8
2022-11-10T01:42:12.316Z,2
2022-11-10T01:45:14.266Z,2.3
2022-11-10T01:48:16.257Z,2.2
2022-11-10T01:51:18.207Z,2.1
2022-11-10T01:54:20.177Z,2.1
2022-11-10T01:57:22.158Z,2.2
2022-11-10T02:00:24.119Z,2.6
2022-11-10T02:03:26.096Z,1.9
2022-11-10T02:06:28.051Z,2.2
2022-11-10T02:09:30.023Z,2.5
2022-11-10T02:12:31.989Z,2.8
2022-11-10T02:15:33.944Z,2.3
2022-11-10T02:18:35.930Z,2.2
2022-11-10T02:21:37.886Z,2.7
2022-11-10T02:24:39.862Z,2.7
2022-11-10T02:27:41.817Z,2.2
2022-11-10T02:30:43.789Z,2.5
2022-11-10T02:33:45.737Z,2.5
2022-11-10T02:36:47.766Z,2.8
2022-11-10T02:39:49.677Z,2.9
2022-11-10T02:42:51.648Z,2.5
2022-11-10T02:45:53.627Z,2.6
2022-11-10T02:48:55.576Z,2.4
2022-11-10T02:51:57.551Z,2.8
2022-11-10T02:54:59.501Z,2.2
2022-11-10T02:58:01.481Z,2.6
2022-11-10T03:01:03.444Z,2.3
2022-11-10T03:04:05.384Z,2.4
2022-11-10T03:07:07.407Z,2.3
2022-11-10T03:10:09.322Z,2.5
2022-11-10T03:13:11.264Z,2.6
2022-11-10T03:16:13.244Z,2.6
2022-11-10T03:19:15.213Z,2.8
2022-11-10T03:22:17.179Z,2.7
2022-11-10T03:25:19.122Z,2.3
2022-11-10T03:28:21.080Z,2.9
2022-11-10T03:31:23.069Z,2.8
2022-11-10T03:34:28.144Z,2.8
2022-11-10T03:37:26.987Z,2.4
2022-11-10T03:40:28.963Z,2.6
2022-11-10T03:43:30.918Z,2.4
2022-11-10T03:46:32.897Z,2.5
2022-11-10T03:49:34.850Z,2.9
2022-11-10T03:52:36.813Z,2.9
2022-11-10T03:55:38.769Z,2.6
2022-11-10T03:58:40.738Z,2.7
2022-11-10T04:01:42.785Z,3
2022-11-10T04:04:44.684Z,2.8
2022-11-10T04:07:46.628Z,3
2022-11-10T04:10:48.590Z,2.4
2022-11-10T04:13:50.561Z,2.7
2022-11-10T04:16:52.523Z,2.6
2022-11-10T04:19:54.481Z,2.6
2022-11-10T04:22:56.435Z,2.6
2022-11-10T04:25:58.407Z,2.7
2022-11-10T04:29:00.365Z,2.6
2022-11-10T04:32:02.336Z,3.4
2022-11-10T04:35:04.302Z,2.8
2022-11-10T04:38:06.272Z,2.3
2022-11-10T04:41:08.237Z,3.2
2022-11-10T04:44:10.200Z,2.5
2022-11-10T04:47:12.267Z,2.7
2022-11-10T04:50:14.140Z,2.9
2022-11-10T04:53:16.104Z,3.2
2022-11-10T04:56:18.140Z,3.3
2022-11-10T04:59:20.036Z,3.3
2022-11-10T05:02:22.006Z,2.7
2022-11-10T05:05:23.973Z,2.9
2022-11-10T05:08:25.940Z,3
2022-11-10T05:11:27.943Z,3
2022-11-10T05:14:29.899Z,3.2
2022-11-10T05:17:31.838Z,3.3
2022-11-10T05:20:33.810Z,3.5
2022-11-10T05:23:35.767Z,2.9
2022-11-10T05:26:37.732Z,3.5
2022-11-10T05:29:39.696Z,3.4
2022-11-10T05:32:41.669Z,3.3
2022-11-10T05:35:43.646Z,2.8
2022-11-10T05:38:45.609Z,3.1
2022-11-10T05:41:47.603Z,3.3
2022-11-10T05:44:49.862Z,3.2
2022-11-10T05:47:51.496Z,3.9
2022-11-10T05:50:53.448Z,3.4
2022-11-10T05:53:55.416Z,3.9
2022-11-10T05:56:57.377Z,4.3
2022-11-10T05:59:59.335Z,4.2
2022-11-10T06:03:01.321Z,3.7
2022-11-10T06:06:03.271Z,5
2022-11-10T06:09:05.243Z,4.8
2022-11-10T06:12:07.196Z,4
2022-11-10T06:15:09.164Z,4.5
2022-11-10T06:18:11.126Z,5.7
2022-11-10T06:21:13.092Z,4.7
2022-11-10T06:24:15.046Z,5.4
2022-11-10T06:27:17.046Z,4.5
2022-11-10T06:30:18.984Z,4.5
2022-11-10T06:33:21.196Z,5
2022-11-10T06:36:22.895Z,6
2022-11-10T06:39:24.859Z,5.2
2022-11-10T06:42:26.839Z,5.6
2022-11-10T06:45:28.822Z,5.5
2022-11-10T06:48:30.770Z,5.7
2022-11-10T06:51:32.734Z,5.6
2022-11-10T06:54:34.702Z,5.7
2022-11-10T06:57:36.665Z,6.6
2022-11-10T07:00:38.614Z,5.7
2022-11-10T07:03:53.375Z,5.3
2022-11-10T07:06:42.597Z,5.1
2022-11-10T07:09:44.555Z,6.1
2022-11-10T07:12:46.484Z,6.6
2022-11-10T07:15:48.477Z,5.4
2022-11-10T07:18:50.406Z,6
2022-11-10T07:21:52.373Z,5.9
2022-11-10T07:24:54.339Z,5.3
2022-11-10T07:27:56.310Z,6.5
2022-11-10T07:30:58.737Z,7
2022-11-10T07:34:00.240Z,6.1
2022-11-10T07:37:02.203Z,6.8
2022-11-10T07:40:04.171Z,5.8
2022-11-10T07:43:06.150Z,5.3
2022-11-10T07:46:08.089Z,6.6
2022-11-10T07:49:10.065Z,6.3
2022-11-10T07:52:12.047Z,6.2
2022-11-10T07:55:14.015Z,6.3
2022-11-10T07:58:15.970Z,6.8
2022-11-10T08:01:17.997Z,6.3
2022-11-10T08:04:20.041Z,6.9
2022-11-10T08:07:21.941Z,6.4
2022-11-10T08:10:23.826Z,7
2022-11-10T08:13:28.783Z,6.5
2022-11-10T08:16:30.745Z,6
2022-11-10T08:19:32.705Z,6.1
2022-11-10T08:22:34.686Z,5.9
2022-11-10T08:25:36.644Z,6.6
2022-11-10T08:28:38.607Z,6
2022-11-10T08:31:40.565Z,6.4
2022-11-10T08:34:42.548Z,6.4
2022-11-10T08:37:44.520Z,5.3
2022-11-10T08:40:46.487Z,5.8
2022-11-10T08:43:48.435Z,4.9
2022-11-10T08:46:50.424Z,5.8
2022-11-10T08:49:52.411Z,5.9
2022-11-10T08:52:54.361Z,6.3
2022-11-10T08:55:56.312Z,6.4
2022-11-10T08:58:58.266Z,7
2022-11-10T09:02:00.249Z,6
2022-11-10T09:05:02.294Z,5.9
2022-11-10T09:08:04.164Z,6
2022-11-10T09:11:06.193Z,4.4
2022-11-10T09:14:08.106Z,4.7
2022-11-10T09:17:10.067Z,4
2022-11-10T09:20:12.073Z,4.1
2022-11-10T09:23:13.992Z,5.4
2022-11-10T09:26:15.958Z,4.1
2022-11-10T09:29:17.918Z,4.1
2022-11-10T09:32:19.885Z,4.3
2022-11-10T09:35:21.850Z,4.3
2022-11-10T09:38:23.943Z,5
2022-11-10T09:41:25.764Z,4.1
2022-11-10T09:44:27.752Z,3.4
2022-11-10T09:47:50.991Z,3.8
2022-11-10T09:50:31.636Z,3.7
2022-11-10T09:53:33.586Z,3.2
2022-11-10T09:56:35.557Z,4.3
2022-11-10T09:59:37.870Z,3.7
2022-11-10T10:02:39.486Z,3.6
2022-11-10T10:05:41.441Z,3.9
2022-11-10T10:08:43.423Z,3.2
2022-11-10T10:11:45.395Z,3.8
2022-11-10T10:14:47.337Z,4
2022-11-10T10:17:49.307Z,4.1
2022-11-10T10:20:51.281Z,3.7
2022-11-10T10:24:09.199Z,3.6
2022-11-10T10:26:55.205Z,3.1
2022-11-10T10:29:57.178Z,3.5
2022-11-10T10:32:59.126Z,3.6
2022-11-10T10:36:01.109Z,3.5
2022-11-10T10:39:03.061Z,3.1
2022-11-10T10:42:05.035Z,2.8
2022-11-10T10:45:07.034Z,3
2022-11-10T10:48:08.964Z,2.8
2022-11-10T10:51:10.928Z,3
2022-11-10T10:54:12.887Z,3.6
2022-11-10T10:57:14.852Z,3
2022-11-10T11:00:16.866Z,3.5
2022-11-10T11:03:18.791Z,3.4
2022-11-10T11:06:20.754Z,2.9
2022-11-10T11:09:22.693Z,2.7
2022-11-10T11:12:24.649Z,3.2
2022-11-10T11:15:26.630Z,3.5
2022-11-10T11:18:28.582Z,3.3
2022-11-10T11:21:30.563Z,3.3
2022-11-10T11:24:32.534Z,3
2022-11-10T11:27:34.485Z,2.9
2022-11-10T11:30:36.459Z,2.9
2022-11-10T11:33:38.412Z,3.1
2022-11-10T11:36:40.388Z,2.5
2022-11-10T11:39:42.362Z,2.4
2022-11-10T11:42:44.317Z,2.3
2022-11-10T11:45:46.297Z,2.7
2022-11-10T11:48:48.252Z,2.6
2022-11-10T11:51:50.212Z,2.6
2022-11-10T11:54:52.187Z,2.4
2022-11-10T11:57:54.149Z,3.1
2022-11-10T12:00:56.105Z,2.5
2022-11-10T12:03:58.079Z,2.5
2022-11-10T12:07:00.092Z,2
2022-11-10T12:10:02.131Z,3.1
2022-11-10T12:13:04.086Z,2.4
2022-11-10T12:16:06.039Z,2.1
2022-11-10T12:19:08.001Z,2.1
2022-11-10T12:22:09.971Z,2.1
2022-11-10T12:25:11.919Z,2.3
2022-11-10T12:28:13.903Z,2.2
2022-11-10T12:31:15.869Z,1.9
2022-11-10T12:34:17.827Z,1.9
2022-11-10T12:37:23.508Z,2.2
2022-11-10T12:40:21.752Z,2.2
2022-11-10T12:43:24.060Z,2.6
2022-11-10T12:46:25.685Z,2.5
2022-11-10T12:49:27.661Z,2.4
2022-11-10T12:52:29.606Z,2.4
2022-11-10T12:55:31.562Z,2.4
2022-11-10T12:58:33.523Z,2.2
2022-11-10T13:01:35.523Z,2
2022-11-10T13:04:37.462Z,1.9
2022-11-10T13:07:39.425Z,2.3
2022-11-10T13:10:41.395Z,2.3
2022-11-10T13:13:43.366Z,2.3
2022-11-10T13:16:45.320Z,2.2
2022-11-10T13:19:47.285Z,2.4
2022-11-10T13:22:49.252Z,2
2022-11-10T13:25:51.227Z,2.3
2022-11-10T13:28:53.209Z,2.2
2022-11-10T13:31:55.170Z,3
2022-11-10T13:34:57.116Z,2.8
2022-11-10T13:37:59.082Z,2.2
2022-11-10T13:41:01.052Z,2.1
2022-11-10T13:44:03.031Z,2.2
2022-11-10T13:47:04.988Z,2.3
2022-11-10T13:50:06.956Z,2.2
2022-11-10T13:53:08.915Z,1.9
2022-11-10T13:56:10.883Z,1.8
2022-11-10T13:59:12.842Z,2.2
2022-11-10T14:02:14.814Z,2.7
2022-11-10T14:05:16.798Z,2.4
2022-11-10T14:08:18.726Z,2.5
2022-11-10T14:11:20.679Z,2.5
2022-11-10T14:14:22.646Z,3
2022-11-10T14:17:24.603Z,2.2
2022-11-10T14:20:26.577Z,2.3
2022-11-10T14:23:28.527Z,2.7
2022-11-10T14:26:30.491Z,2.9
2022-11-10T14:29:32.465Z,2.8
2022-11-10T14:32:34.421Z,3
2022-11-10T14:35:36.382Z,2.4
2022-11-10T14:38:38.347Z,3.4
2022-11-10T14:41:40.315Z,2.6
2022-11-10T14:44:42.286Z,2.7
2022-11-10T14:47:44.246Z,2.6
2022-11-10T14:50:46.224Z,2.8
2022-11-10T14:53:48.160Z,3.3
2022-11-10T14:56:50.171Z,2.5
2022-11-10T14:59:52.087Z,2.6
2022-11-10T15:02:54.092Z,2.4
2022-11-10T15:05:56.051Z,3.1
2022-11-10T15:08:57.999Z,2.9
2022-11-10T15:11:59.973Z,3.1
2022-11-10T15:15:01.925Z,2.9
2022-11-10T15:18:03.892Z,2.9
2022-11-10T15:21:05.855Z,2.2
2022-11-10T15:24:07.824Z,3
2022-11-10T15:27:09.784Z,2.8
2022-11-10T15:30:11.747Z,2.5
2022-11-10T15:33:13.712Z,3
2022-11-10T15:36:15.679Z,2.8
2022-11-10T15:39:17.660Z,2.7
2022-11-10T15:42:19.613Z,2.4
2022-11-10T15:45:21.565Z,2.9
2022-11-10T15:48:23.811Z,3.2
2022-11-10T15:51:26.437Z,2.5
2022-11-10T15:54:27.466Z,2.8
2022-11-10T15:57:29.473Z,2.6
2022-11-10T16:00:31.426Z,2.9
2022-11-10T16:03:33.410Z,3
2022-11-10T16:06:35.363Z,2.7
2022-11-10T16:09:37.376Z,2.5
2022-11-10T16:12:39.293Z,3.3
2022-11-10T16:15:41.237Z,3.3
2022-11-10T16:18:44.011Z,2.9
2022-11-10T16:21:45.163Z,3
2022-11-10T16:24:47.169Z,3.5
2022-11-10T16:27:49.124Z,2.8
2022-11-10T16:30:51.088Z,3.1
2022-11-10T16:33:53.056Z,3.2
2022-11-10T16:36:55.030Z,3.3
2022-11-10T16:39:56.988Z,2.7
2022-11-10T16:42:58.956Z,3.2
2022-11-10T16:46:00.910Z,3.9
2022-11-10T16:49:02.872Z,2.9
2022-11-10T16:52:04.840Z,3.1
2022-11-10T16:55:06.789Z,3.5
2022-11-10T16:58:08.749Z,3.4
2022-11-10T17:01:10.794Z,5.3
2022-11-10T17:04:12.671Z,4.3
2022-11-10T17:07:14.880Z,4.2
2022-11-10T17:10:16.744Z,4.4
2022-11-10T17:13:18.706Z,3.5
2022-11-10T17:16:20.668Z,3.6
2022-11-10T17:19:22.640Z,3.3
2022-11-10T17:22:24.607Z,3.6
2022-11-10T17:25:26.573Z,4
2022-11-10T17:28:28.560Z,3.4
2022-11-10T17:31:30.522Z,4.3
2022-11-10T17:34:32.484Z,4
2022-11-10T17:37:34.446Z,4.7
2022-11-10T17:40:36.410Z,3.5
2022-11-10T17:43:41.545Z,4.3
2022-11-10T17:46:40.346Z,4.2
2022-11-10T17:49:42.302Z,4
2022-11-10T17:52:44.314Z,3.8
2022-11-10T17:55:46.241Z,4
2022-11-10T17:58:48.199Z,4.3
2022-11-10T18:01:50.361Z,4.5
2022-11-10T18:04:52.150Z,5.1
2022-11-10T18:07:54.129Z,4.9
2022-11-10T18:10:56.078Z,5.2
2022-11-10T18:13:58.042Z,4.7
2022-11-10T18:17:00.006Z,4.5
2022-11-10T18:20:01.990Z,5.3
2022-11-10T18:23:03.950Z,4.3
2022-11-10T18:26:05.926Z,5.2
2022-11-10T18:29:08.026Z,5.2
2022-11-10T18:32:09.983Z,6
2022-11-10T18:35:11.947Z,5.1
2022-11-10T18:38:13.901Z,5.5
2022-11-10T18:41:15.852Z,5.5
2022-11-10T18:44:17.812Z,4.6
2022-11-10T18:47:19.797Z,5.3
2022-11-10T18:50:21.752Z,4.9
2022-11-10T18:53:24.016Z,5.2
2022-11-10T18:56:25.675Z,5.4
2022-11-10T18:59:27.657Z,6.8
2022-11-10T19:02:29.713Z,6.4
2022-11-10T19:05:31.683Z,6.8
2022-11-10T19:08:33.645Z,5.6
2022-11-10T19:11:35.609Z,5.9
2022-11-10T19:14:37.556Z,6.6
2022-11-10T19:17:39.536Z,7.5
2022-11-10T19:20:41.503Z,6.1
2022-11-10T19:23:43.466Z,7.4
2022-11-10T19:26:45.430Z,6.8
2022-11-10T19:29:47.545Z,6.1
2022-11-10T19:32:49.491Z,7.2
2022-11-10T19:35:51.469Z,6.5
2022-11-10T19:38:53.538Z,6.5
2022-11-10T19:41:55.375Z,7.7
2022-11-10T19:44:57.393Z,9.4
2022-11-10T19:47:59.303Z,8.5
2022-11-10T19:51:01.271Z,8.3
2022-11-10T19:54:03.241Z,6.8
2022-11-10T19:57:05.209Z,7.5
2022-11-10T20:00:07.177Z,7.8
2022-11-10T20:03:09.120Z,7.9
2022-11-10T20:06:11.088Z,7.5
2022-11-10T20:09:13.057Z,8.5
2022-11-10T20:12:15.036Z,7.3
2022-11-10T20:15:17.011Z,7.6
2022-11-10T20:18:19.033Z,7.6
2022-11-10T20:21:20.931Z,7.6
2022-11-10T20:24:22.892Z,8.5
2022-11-10T20:27:24.896Z,7.5
2022-11-10T20:30:26.874Z,6.9
2022-11-10T20:33:28.828Z,6.9
2022-11-10T20:36:30.791Z,7.5
2022-11-10T20:39:32.737Z,8
2022-11-10T20:42:37.821Z,6.8
2022-11-10T20:45:36.668Z,6.7
2022-11-10T20:48:38.647Z,6.2
2022-11-10T20:51:40.598Z,7.1
2022-11-10T20:54:42.570Z,8.1
2022-11-10T20:57:44.528Z,6.8
2022-11-10T21:00:46.501Z,8.1
2022-11-10T21:03:48.459Z,9.1
2022-11-10T21:06:50.479Z,8.3
2022-11-10T21:09:52.397Z,13.4
2022-11-10T21:12:54.334Z,8.7
2022-11-10T21:15:56.346Z,10.6
2022-11-10T21:18:58.296Z,10.3
2022-11-10T21:22:00.257Z,9.6
2022-11-10T21:25:02.248Z,9.4
2022-11-10T21:28:04.241Z,9.1
2022-11-10T21:31:06.194Z,8.8
2022-11-10T21:34:08.149Z,7.7
2022-11-10T21:37:10.874Z,8.5
2022-11-10T21:40:12.145Z,9.2
2022-11-10T21:43:14.036Z,8.4
2022-11-10T21:46:16.013Z,8.1
2022-11-10T21:49:17.983Z,8.4
2022-11-10T21:52:19.979Z,7.3
2022-11-10T21:55:21.949Z,7.6
2022-11-10T21:58:23.916Z,7.8
2022-11-10T22:01:25.893Z,7.5
2022-11-10T22:04:27.857Z,7.1
2022-11-10T22:07:29.817Z,7.6
2022-11-10T22:10:31.790Z,6.7
2022-11-10T22:13:33.745Z,7
2022-11-10T22:16:35.717Z,7.2
2022-11-10T22:19:37.672Z,6.7
2022-11-10T22:22:39.651Z,7.1
2022-11-10T22:25:41.607Z,6.2
2022-11-10T22:28:43.579Z,6.1
2022-11-10T22:31:45.544Z,5.9
2022-11-10T22:34:47.533Z,6.5
2022-11-10T22:37:49.473Z,5.3
2022-11-10T22:40:51.442Z,6.3
2022-11-10T22:43:53.423Z,6.9
2022-11-10T22:46:55.381Z,6.1
2022-11-10T22:49:57.350Z,5.4
2022-11-10T22:52:59.322Z,5.8
2022-11-10T22:56:01.279Z,6.8
2022-11-10T22:59:03.250Z,6.4
2022-11-10T23:02:05.238Z,6.9
2022-11-10T23:05:07.252Z,5.9
2022-11-10T23:08:09.219Z,6
2022-11-10T23:11:11.172Z,6.2
2022-11-10T23:14:13.136Z,7.3
2022-11-10T23:17:15.095Z,7.1
2022-11-10T23:20:17.073Z,7
2022-11-10T23:23:19.028Z,7.6
2022-11-10T23:26:20.986Z,8
2022-11-10T23:29:22.969Z,7.2
2022-11-10T23:32:24.913Z,7.4
2022-11-10T23:35:26.871Z,6.8
2022-11-10T23:38:28.822Z,7
2022-11-10T23:41:30.787Z,8
2022-11-10T23:44:32.749Z,7.7
2022-11-10T23:47:34.719Z,8.2
2022-11-10T23:50:36.678Z,8.5
2022-11-10T23:53:38.652Z,8.5
2022-11-10T23:56:40.624Z,8.3
2022-11-10T23:59:42.592Z,8.5
